This is the latest recevied weather packets stored in our database for station/object W4TJP. If no packets are shown the sender has not sent any weather packets the latest 1 day(s).
| Time | Temp. | Humidity | Pressure | Rain* | Wind** | Luminosity | Snow |
|---|---|---|---|---|---|---|---|
| 1777986166 | 16.67° C | 70% | 1013.5 hPa | 0 mm | 0 m/s | 192 W/m² | - |
| 1777985863 | 16.11° C | 71% | 1013.7 hPa | 0 mm | 0.45 m/s, 177° | 194 W/m² | - |
| 1777985560 | 15° C | 75% | 1013.5 hPa | 0 mm | 0 m/s | 161 W/m² | - |
| 1777985256 | 15° C | 75% | 1013.5 hPa | 0 mm | 0.45 m/s, 177° | 115 W/m² | - |
| 1777984953 | 14.44° C | 84% | 1013.7 hPa | 0 mm | 0 m/s | 117 W/m² | - |
| 1777984649 | 13.89° C | 88% | 1013.3 hPa | 0 mm | 0 m/s | 94 W/m² | - |
| 1777984346 | 12.78° C | 91% | 1013.4 hPa | 0 mm | 0 m/s | 85 W/m² | - |
| 1777984042 | 12.78° C | 91% | 1013.6 hPa | 0 mm | 0 m/s | 74 W/m² | - |
| 1777983740 | 11.67° C | 92% | 1013.3 hPa | 0 mm | 0 m/s | 66 W/m² | - |
| 1777983436 | 11.67° C | 94% | 1013.4 hPa | 0 mm | 0 m/s | 59 W/m² | - |
| 1777983133 | 11.11° C | 95% | 1013.4 hPa | 0 mm | 0 m/s | 55 W/m² | - |
| 1777982829 | 10.56° C | 95% | 1013.3 hPa | 0 mm | 0 m/s | 51 W/m² | - |
| 1777982526 | 10° C | 97% | 1013.1 hPa | 0 mm | 0 m/s | 49 W/m² | - |
| 1777982224 | 10° C | 99% | 1013.2 hPa | 0 mm | 0 m/s | 43 W/m² | - |
| 1777981923 | 9.44° C | 99% | 1013.2 hPa | 0 mm | 0 m/s | 38 W/m² | - |
| 1777981620 | 9.44° C | 99% | 1013.2 hPa | 0 mm | 0 m/s | 33 W/m² | - |
| 1777981316 | 9.44° C | 99% | 1013.2 hPa | 0 mm | 0 m/s | 33 W/m² | - |
| 1777981012 | 8.89° C | 99% | 1013.1 hPa | 0 mm | 0 m/s | 30 W/m² | - |
| 1777980709 | 8.89° C | 99% | 1012.9 hPa | 0 mm | 0 m/s | 25 W/m² | - |
| 1777980405 | 8.33° C | 99% | 1012.9 hPa | 0 mm | 0 m/s | 23 W/m² | - |
| 1777980103 | 8.33° C | 99% | 1012.9 hPa | 0 mm | 0 m/s | 19 W/m² | - |
| 1777979802 | 8.33° C | 99% | 1012.9 hPa | 0 mm | 0 m/s | 15 W/m² | - |
| 1777979499 | 7.78° C | 99% | 1013.1 hPa | 0 mm | 0 m/s | 11 W/m² | - |
| 1777979195 | 7.78° C | 99% | 1012.9 hPa | 0 mm | 0 m/s | 10 W/m² | - |
| 1777978893 | 7.78° C | 99% | 1012.8 hPa | 0 mm | 0 m/s | 8 W/m² | - |
* Rain latest hour (hover to see other rain measurements)
** Current wind speed in m/s (hover to see current wind gust speed)